sensor_id;sensor_type;location;lat;lon;timestamp;temperature;humidity
6520;DHT22;3293;51.690;5.982;2024-03-22T00:02:31;10.90;99.90
6520;DHT22;3293;51.690;5.982;2024-03-22T00:07:31;10.90;99.90
6520;DHT22;3293;51.690;5.982;2024-03-22T00:12:31;10.80;99.90
6520;DHT22;3293;51.690;5.982;2024-03-22T00:17:31;10.90;99.90
6520;DHT22;3293;51.690;5.982;2024-03-22T00:22:31;10.90;99.90
6520;DHT22;3293;51.690;5.982;2024-03-22T00:27:31;10.90;99.90
6520;DHT22;3293;51.690;5.982;2024-03-22T00:32:31;10.90;99.90
6520;DHT22;3293;51.690;5.982;2024-03-22T00:37:30;11.00;99.90
6520;DHT22;3293;51.690;5.982;2024-03-22T00:42:31;11.00;99.90
6520;DHT22;3293;51.690;5.982;2024-03-22T00:47:30;11.10;99.90
6520;DHT22;3293;51.690;5.982;2024-03-22T00:52:31;11.00;99.90
6520;DHT22;3293;51.690;5.982;2024-03-22T00:57:31;11.10;99.90
6520;DHT22;3293;51.690;5.982;2024-03-22T01:02:31;11.10;99.90
6520;DHT22;3293;51.690;5.982;2024-03-22T01:07:31;11.10;99.90
6520;DHT22;3293;51.690;5.982;2024-03-22T01:12:31;11.20;99.90
6520;DHT22;3293;51.690;5.982;2024-03-22T01:17:30;11.20;99.90
6520;DHT22;3293;51.690;5.982;2024-03-22T01:22:30;11.20;99.90
6520;DHT22;3293;51.690;5.982;2024-03-22T01:27:30;11.30;99.90
6520;DHT22;3293;51.690;5.982;2024-03-22T01:32:31;11.30;99.90
6520;DHT22;3293;51.690;5.982;2024-03-22T01:37:31;11.30;99.90
6520;DHT22;3293;51.690;5.982;2024-03-22T01:42:31;11.30;99.90
6520;DHT22;3293;51.690;5.982;2024-03-22T01:47:31;11.30;99.90
6520;DHT22;3293;51.690;5.982;2024-03-22T01:52:31;11.30;99.90
6520;DHT22;3293;51.690;5.982;2024-03-22T01:57:31;11.30;99.90
6520;DHT22;3293;51.690;5.982;2024-03-22T02:02:31;11.30;99.90
6520;DHT22;3293;51.690;5.982;2024-03-22T02:07:31;11.30;99.90
6520;DHT22;3293;51.690;5.982;2024-03-22T02:12:31;11.30;99.90
6520;DHT22;3293;51.690;5.982;2024-03-22T02:17:31;11.30;99.90
6520;DHT22;3293;51.690;5.982;2024-03-22T02:22:31;11.30;99.90
6520;DHT22;3293;51.690;5.982;2024-03-22T02:27:31;11.30;99.90
6520;DHT22;3293;51.690;5.982;2024-03-22T02:32:31;11.20;99.90
6520;DHT22;3293;51.690;5.982;2024-03-22T02:37:31;11.10;99.90
6520;DHT22;3293;51.690;5.982;2024-03-22T02:42:32;11.10;99.90
6520;DHT22;3293;51.690;5.982;2024-03-22T02:47:31;11.10;99.90
6520;DHT22;3293;51.690;5.982;2024-03-22T02:52:31;11.00;99.90
6520;DHT22;3293;51.690;5.982;2024-03-22T02:57:31;11.10;99.90
6520;DHT22;3293;51.690;5.982;2024-03-22T03:02:31;11.10;99.90
6520;DHT22;3293;51.690;5.982;2024-03-22T03:07:31;11.10;99.90
6520;DHT22;3293;51.690;5.982;2024-03-22T03:12:31;11.10;99.90
6520;DHT22;3293;51.690;5.982;2024-03-22T03:17:31;11.10;99.90
6520;DHT22;3293;51.690;5.982;2024-03-22T03:22:31;11.00;99.90
6520;DHT22;3293;51.690;5.982;2024-03-22T03:27:31;11.10;99.90
6520;DHT22;3293;51.690;5.982;2024-03-22T03:32:31;11.10;99.90
6520;DHT22;3293;51.690;5.982;2024-03-22T03:37:31;11.10;99.90
6520;DHT22;3293;51.690;5.982;2024-03-22T03:42:31;11.10;99.90
6520;DHT22;3293;51.690;5.982;2024-03-22T03:47:30;11.10;99.90
6520;DHT22;3293;51.690;5.982;2024-03-22T03:52:31;11.10;99.90
6520;DHT22;3293;51.690;5.982;2024-03-22T03:57:31;11.00;99.90
6520;DHT22;3293;51.690;5.982;2024-03-22T04:02:30;11.00;99.90
6520;DHT22;3293;51.690;5.982;2024-03-22T04:07:30;11.00;99.90
6520;DHT22;3293;51.690;5.982;2024-03-22T04:12:30;11.00;99.90
6520;DHT22;3293;51.690;5.982;2024-03-22T04:17:30;11.00;99.90
6520;DHT22;3293;51.690;5.982;2024-03-22T04:22:30;11.00;99.90
6520;DHT22;3293;51.690;5.982;2024-03-22T04:27:30;11.00;99.90
6520;DHT22;3293;51.690;5.982;2024-03-22T04:32:30;11.00;99.90
6520;DHT22;3293;51.690;5.982;2024-03-22T04:37:30;10.90;99.90
6520;DHT22;3293;51.690;5.982;2024-03-22T04:42:29;11.00;99.90
6520;DHT22;3293;51.690;5.982;2024-03-22T04:47:29;10.90;99.90
6520;DHT22;3293;51.690;5.982;2024-03-22T04:52:29;10.90;99.90
6520;DHT22;3293;51.690;5.982;2024-03-22T04:57:29;11.00;99.90
6520;DHT22;3293;51.690;5.982;2024-03-22T05:02:29;11.00;99.90
6520;DHT22;3293;51.690;5.982;2024-03-22T05:07:29;11.10;99.90
6520;DHT22;3293;51.690;5.982;2024-03-22T05:12:29;11.10;99.90
6520;DHT22;3293;51.690;5.982;2024-03-22T05:17:29;11.10;99.90
6520;DHT22;3293;51.690;5.982;2024-03-22T05:22:31;11.10;99.90
6520;DHT22;3293;51.690;5.982;2024-03-22T05:27:32;11.10;99.90
6520;DHT22;3293;51.690;5.982;2024-03-22T05:32:32;11.00;99.90
6520;DHT22;3293;51.690;5.982;2024-03-22T05:37:32;11.00;99.90
6520;DHT22;3293;51.690;5.982;2024-03-22T05:42:33;11.00;99.90
6520;DHT22;3293;51.690;5.982;2024-03-22T05:47:33;10.90;99.90
6520;DHT22;3293;51.690;5.982;2024-03-22T05:52:33;10.90;99.90
6520;DHT22;3293;51.690;5.982;2024-03-22T05:57:34;10.90;99.90
6520;DHT22;3293;51.690;5.982;2024-03-22T06:02:34;10.90;99.90
6520;DHT22;3293;51.690;5.982;2024-03-22T06:07:34;11.00;99.90
6520;DHT22;3293;51.690;5.982;2024-03-22T06:12:40;11.00;99.90
6520;DHT22;3293;51.690;5.982;2024-03-22T06:17:40;11.10;99.90
6520;DHT22;3293;51.690;5.982;2024-03-22T06:22:42;11.10;99.90
6520;DHT22;3293;51.690;5.982;2024-03-22T06:27:42;11.20;99.90
6520;DHT22;3293;51.690;5.982;2024-03-22T06:32:42;11.30;99.90
6520;DHT22;3293;51.690;5.982;2024-03-22T06:37:42;11.30;99.90
6520;DHT22;3293;51.690;5.982;2024-03-22T06:42:43;11.40;99.90
6520;DHT22;3293;51.690;5.982;2024-03-22T06:47:43;11.50;99.90
6520;DHT22;3293;51.690;5.982;2024-03-22T06:52:43;11.50;99.90
6520;DHT22;3293;51.690;5.982;2024-03-22T06:57:47;11.50;99.90
6520;DHT22;3293;51.690;5.982;2024-03-22T07:02:47;11.40;99.90
6520;DHT22;3293;51.690;5.982;2024-03-22T07:07:47;11.40;99.90
6520;DHT22;3293;51.690;5.982;2024-03-22T07:12:46;11.40;99.90
6520;DHT22;3293;51.690;5.982;2024-03-22T07:17:46;11.50;99.90
6520;DHT22;3293;51.690;5.982;2024-03-22T07:22:46;11.60;99.90
6520;DHT22;3293;51.690;5.982;2024-03-22T07:27:46;11.70;99.90
6520;DHT22;3293;51.690;5.982;2024-03-22T07:32:48;11.80;99.90
6520;DHT22;3293;51.690;5.982;2024-03-22T07:37:48;11.80;99.90
6520;DHT22;3293;51.690;5.982;2024-03-22T07:42:48;11.90;99.90
6520;DHT22;3293;51.690;5.982;2024-03-22T07:47:48;12.20;99.90
6520;DHT22;3293;51.690;5.982;2024-03-22T07:52:48;12.60;99.90
6520;DHT22;3293;51.690;5.982;2024-03-22T07:57:48;13.00;99.90
6520;DHT22;3293;51.690;5.982;2024-03-22T08:02:48;13.30;99.90
6520;DHT22;3293;51.690;5.982;2024-03-22T08:07:47;13.70;99.90
6520;DHT22;3293;51.690;5.982;2024-03-22T08:12:47;14.00;99.90
6520;DHT22;3293;51.690;5.982;2024-03-22T08:17:47;13.60;99.90
6520;DHT22;3293;51.690;5.982;2024-03-22T08:22:47;13.30;99.90
6520;DHT22;3293;51.690;5.982;2024-03-22T08:27:47;13.10;99.90
6520;DHT22;3293;51.690;5.982;2024-03-22T08:32:47;12.90;99.90
6520;DHT22;3293;51.690;5.982;2024-03-22T08:37:47;12.90;99.90
6520;DHT22;3293;51.690;5.982;2024-03-22T08:42:47;12.70;99.90
6520;DHT22;3293;51.690;5.982;2024-03-22T08:47:47;12.70;99.90
6520;DHT22;3293;51.690;5.982;2024-03-22T08:52:47;12.70;99.90
6520;DHT22;3293;51.690;5.982;2024-03-22T08:57:47;12.50;99.90
6520;DHT22;3293;51.690;5.982;2024-03-22T09:02:47;12.50;99.90
6520;DHT22;3293;51.690;5.982;2024-03-22T09:07:47;12.50;99.90
6520;DHT22;3293;51.690;5.982;2024-03-22T09:12:48;12.60;99.90
6520;DHT22;3293;51.690;5.982;2024-03-22T09:17:48;12.70;99.90
6520;DHT22;3293;51.690;5.982;2024-03-22T09:22:48;12.60;99.90
6520;DHT22;3293;51.690;5.982;2024-03-22T09:27:49;12.50;99.90
6520;DHT22;3293;51.690;5.982;2024-03-22T09:32:49;12.50;99.90
6520;DHT22;3293;51.690;5.982;2024-03-22T09:37:49;12.40;99.90
6520;DHT22;3293;51.690;5.982;2024-03-22T09:42:50;12.50;99.90
6520;DHT22;3293;51.690;5.982;2024-03-22T09:47:52;12.50;99.90
6520;DHT22;3293;51.690;5.982;2024-03-22T09:52:56;12.50;99.90
6520;DHT22;3293;51.690;5.982;2024-03-22T09:57:56;12.40;99.90
6520;DHT22;3293;51.690;5.982;2024-03-22T10:02:56;12.40;99.90
6520;DHT22;3293;51.690;5.982;2024-03-22T10:07:58;12.50;99.90
6520;DHT22;3293;51.690;5.982;2024-03-22T10:13:00;12.60;99.90
6520;DHT22;3293;51.690;5.982;2024-03-22T10:18:01;12.70;99.90
6520;DHT22;3293;51.690;5.982;2024-03-22T10:23:01;12.70;99.90
6520;DHT22;3293;51.690;5.982;2024-03-22T10:28:03;12.60;99.90
6520;DHT22;3293;51.690;5.982;2024-03-22T10:33:04;12.50;99.90
6520;DHT22;3293;51.690;5.982;2024-03-22T10:38:07;12.60;99.90
6520;DHT22;3293;51.690;5.982;2024-03-22T10:43:08;12.60;99.90
6520;DHT22;3293;51.690;5.982;2024-03-22T10:48:12;12.60;99.90
6520;DHT22;3293;51.690;5.982;2024-03-22T10:53:18;12.50;99.90
6520;DHT22;3293;51.690;5.982;2024-03-22T10:58:21;12.40;99.90
6520;DHT22;3293;51.690;5.982;2024-03-22T11:03:24;12.40;99.90
6520;DHT22;3293;51.690;5.982;2024-03-22T11:08:29;12.30;99.90
6520;DHT22;3293;51.690;5.982;2024-03-22T11:13:36;12.40;99.90
6520;DHT22;3293;51.690;5.982;2024-03-22T11:18:37;12.30;99.90
6520;DHT22;3293;51.690;5.982;2024-03-22T11:23:38;12.20;99.90
6520;DHT22;3293;51.690;5.982;2024-03-22T11:28:40;12.30;99.90
6520;DHT22;3293;51.690;5.982;2024-03-22T11:33:43;12.30;99.90
6520;DHT22;3293;51.690;5.982;2024-03-22T11:38:45;12.30;99.90
6520;DHT22;3293;51.690;5.982;2024-03-22T11:43:47;12.20;99.90
6520;DHT22;3293;51.690;5.982;2024-03-22T11:48:55;12.20;99.90
6520;DHT22;3293;51.690;5.982;2024-03-22T11:53:58;12.20;99.90
6520;DHT22;3293;51.690;5.982;2024-03-22T11:59:01;12.20;99.90
6520;DHT22;3293;51.690;5.982;2024-03-22T12:04:05;12.20;99.90
6520;DHT22;3293;51.690;5.982;2024-03-22T12:09:07;12.10;99.90
6520;DHT22;3293;51.690;5.982;2024-03-22T12:14:09;12.00;99.90
6520;DHT22;3293;51.690;5.982;2024-03-22T12:19:09;12.10;99.90
6520;DHT22;3293;51.690;5.982;2024-03-22T12:24:10;12.00;99.90
6520;DHT22;3293;51.690;5.982;2024-03-22T12:29:18;11.80;99.90
6520;DHT22;3293;51.690;5.982;2024-03-22T12:34:18;11.80;99.90
6520;DHT22;3293;51.690;5.982;2024-03-22T12:39:18;11.80;99.90
6520;DHT22;3293;51.690;5.982;2024-03-22T12:44:18;11.70;99.90
6520;DHT22;3293;51.690;5.982;2024-03-22T12:49:18;11.60;99.90
6520;DHT22;3293;51.690;5.982;2024-03-22T12:54:18;11.60;99.90
6520;DHT22;3293;51.690;5.982;2024-03-22T12:59:20;11.50;99.90
6520;DHT22;3293;51.690;5.982;2024-03-22T13:04:20;11.50;99.90
6520;DHT22;3293;51.690;5.982;2024-03-22T13:09:20;11.50;99.90
6520;DHT22;3293;51.690;5.982;2024-03-22T13:14:21;11.40;99.90
6520;DHT22;3293;51.690;5.982;2024-03-22T13:19:21;11.40;99.90
6520;DHT22;3293;51.690;5.982;2024-03-22T13:24:21;11.40;99.90
6520;DHT22;3293;51.690;5.982;2024-03-22T13:29:21;11.40;99.90
6520;DHT22;3293;51.690;5.982;2024-03-22T13:34:20;11.40;99.90
6520;DHT22;3293;51.690;5.982;2024-03-22T13:39:20;11.50;99.90
6520;DHT22;3293;51.690;5.982;2024-03-22T13:44:20;11.50;99.90
6520;DHT22;3293;51.690;5.982;2024-03-22T13:49:20;11.50;99.90
6520;DHT22;3293;51.690;5.982;2024-03-22T13:54:20;11.40;99.90
6520;DHT22;3293;51.690;5.982;2024-03-22T13:59:20;11.40;99.90
6520;DHT22;3293;51.690;5.982;2024-03-22T14:04:20;11.30;99.90
6520;DHT22;3293;51.690;5.982;2024-03-22T14:09:20;11.30;99.90
6520;DHT22;3293;51.690;5.982;2024-03-22T14:14:20;11.30;99.90
6520;DHT22;3293;51.690;5.982;2024-03-22T14:19:20;11.30;99.90
6520;DHT22;3293;51.690;5.982;2024-03-22T14:24:20;11.40;99.90
6520;DHT22;3293;51.690;5.982;2024-03-22T14:29:20;11.30;99.90
6520;DHT22;3293;51.690;5.982;2024-03-22T14:34:20;11.30;99.90
6520;DHT22;3293;51.690;5.982;2024-03-22T14:39:20;11.20;99.90
6520;DHT22;3293;51.690;5.982;2024-03-22T14:44:19;11.00;99.90
6520;DHT22;3293;51.690;5.982;2024-03-22T14:49:20;10.90;99.90
6520;DHT22;3293;51.690;5.982;2024-03-22T14:54:22;10.90;99.90
6520;DHT22;3293;51.690;5.982;2024-03-22T14:59:22;10.80;99.90
6520;DHT22;3293;51.690;5.982;2024-03-22T15:04:23;10.90;99.90
6520;DHT22;3293;51.690;5.982;2024-03-22T15:09:23;10.90;99.90
6520;DHT22;3293;51.690;5.982;2024-03-22T15:14:23;10.90;99.90
6520;DHT22;3293;51.690;5.982;2024-03-22T15:19:23;11.00;99.90
6520;DHT22;3293;51.690;5.982;2024-03-22T15:24:23;10.90;99.90
6520;DHT22;3293;51.690;5.982;2024-03-22T15:29:23;10.90;99.90
6520;DHT22;3293;51.690;5.982;2024-03-22T15:34:23;11.00;99.90
6520;DHT22;3293;51.690;5.982;2024-03-22T15:39:24;10.90;99.90
6520;DHT22;3293;51.690;5.982;2024-03-22T15:44:26;10.80;99.90
6520;DHT22;3293;51.690;5.982;2024-03-22T15:49:26;10.90;99.90
6520;DHT22;3293;51.690;5.982;2024-03-22T15:54:26;10.80;99.90
6520;DHT22;3293;51.690;5.982;2024-03-22T15:59:26;10.70;99.90
6520;DHT22;3293;51.690;5.982;2024-03-22T16:04:26;10.70;99.90
6520;DHT22;3293;51.690;5.982;2024-03-22T16:09:25;10.60;99.90
6520;DHT22;3293;51.690;5.982;2024-03-22T16:14:25;10.50;99.90
6520;DHT22;3293;51.690;5.982;2024-03-22T16:19:26;10.40;99.90
6520;DHT22;3293;51.690;5.982;2024-03-22T16:24:25;10.30;99.90
6520;DHT22;3293;51.690;5.982;2024-03-22T16:29:25;10.20;99.90
6520;DHT22;3293;51.690;5.982;2024-03-22T16:34:25;10.20;99.90
6520;DHT22;3293;51.690;5.982;2024-03-22T16:39:25;10.30;99.90
6520;DHT22;3293;51.690;5.982;2024-03-22T16:44:25;10.30;99.90
6520;DHT22;3293;51.690;5.982;2024-03-22T16:49:25;10.10;99.90
6520;DHT22;3293;51.690;5.982;2024-03-22T16:54:25;10.20;99.90
6520;DHT22;3293;51.690;5.982;2024-03-22T16:59:25;10.10;99.90
6520;DHT22;3293;51.690;5.982;2024-03-22T17:04:25;10.10;99.90
6520;DHT22;3293;51.690;5.982;2024-03-22T17:09:25;10.10;99.90
6520;DHT22;3293;51.690;5.982;2024-03-22T17:14:25;10.00;99.90
6520;DHT22;3293;51.690;5.982;2024-03-22T17:19:26;9.90;99.90
6520;DHT22;3293;51.690;5.982;2024-03-22T17:24:26;9.90;99.90
6520;DHT22;3293;51.690;5.982;2024-03-22T17:29:27;9.90;99.90
6520;DHT22;3293;51.690;5.982;2024-03-22T17:34:27;9.90;99.90
6520;DHT22;3293;51.690;5.982;2024-03-22T17:39:27;9.90;99.90
6520;DHT22;3293;51.690;5.982;2024-03-22T17:44:26;9.90;99.90
6520;DHT22;3293;51.690;5.982;2024-03-22T17:49:27;9.80;99.90
6520;DHT22;3293;51.690;5.982;2024-03-22T17:54:27;9.80;99.90
6520;DHT22;3293;51.690;5.982;2024-03-22T17:59:27;9.80;99.90
6520;DHT22;3293;51.690;5.982;2024-03-22T18:04:26;9.80;99.90
6520;DHT22;3293;51.690;5.982;2024-03-22T18:09:26;9.80;99.90
6520;DHT22;3293;51.690;5.982;2024-03-22T18:14:26;9.90;99.90
6520;DHT22;3293;51.690;5.982;2024-03-22T18:19:26;9.80;99.90
6520;DHT22;3293;51.690;5.982;2024-03-22T18:24:26;9.70;99.90
6520;DHT22;3293;51.690;5.982;2024-03-22T18:29:26;9.70;99.90
6520;DHT22;3293;51.690;5.982;2024-03-22T18:34:26;9.60;99.90
6520;DHT22;3293;51.690;5.982;2024-03-22T18:39:26;9.50;99.90
6520;DHT22;3293;51.690;5.982;2024-03-22T18:44:26;9.40;99.90
6520;DHT22;3293;51.690;5.982;2024-03-22T18:49:28;9.40;99.90
6520;DHT22;3293;51.690;5.982;2024-03-22T18:54:28;9.20;99.90
6520;DHT22;3293;51.690;5.982;2024-03-22T18:59:28;9.10;99.90
6520;DHT22;3293;51.690;5.982;2024-03-22T19:04:28;8.90;99.90
6520;DHT22;3293;51.690;5.982;2024-03-22T19:09:28;8.80;99.90
6520;DHT22;3293;51.690;5.982;2024-03-22T19:14:27;8.80;99.90
6520;DHT22;3293;51.690;5.982;2024-03-22T19:19:29;8.70;99.90
6520;DHT22;3293;51.690;5.982;2024-03-22T19:24:29;8.60;99.90
6520;DHT22;3293;51.690;5.982;2024-03-22T19:29:29;8.60;99.90
6520;DHT22;3293;51.690;5.982;2024-03-22T19:34:28;8.70;99.90
6520;DHT22;3293;51.690;5.982;2024-03-22T19:39:29;8.70;99.90
6520;DHT22;3293;51.690;5.982;2024-03-22T19:44:29;8.60;99.90
6520;DHT22;3293;51.690;5.982;2024-03-22T19:49:30;8.60;99.90
6520;DHT22;3293;51.690;5.982;2024-03-22T19:54:30;8.60;99.90
6520;DHT22;3293;51.690;5.982;2024-03-22T19:59:30;8.60;99.90
6520;DHT22;3293;51.690;5.982;2024-03-22T20:04:30;8.50;99.90
6520;DHT22;3293;51.690;5.982;2024-03-22T20:09:30;8.50;99.90
6520;DHT22;3293;51.690;5.982;2024-03-22T20:14:30;8.40;99.90
6520;DHT22;3293;51.690;5.982;2024-03-22T20:19:32;8.40;99.90
6520;DHT22;3293;51.690;5.982;2024-03-22T20:24:32;8.30;99.90
6520;DHT22;3293;51.690;5.982;2024-03-22T20:29:32;8.30;99.90
6520;DHT22;3293;51.690;5.982;2024-03-22T20:34:32;8.30;99.90
